Taunton 2W

41° 53' 56"N, 71° 08' 19"W, Elevation 50 ft.
Eastern Time

Hourly observations for the last 72 hours

Date Time Temperature (°F) Humi-
dity

(%)
Wind
(mph)
Pressure Rain (in) Sun
(W/m2)
UV ET
(in)
Air Dew 6 Hour 1 Hr 3 Hr 6 Hr Day
Alt
(in)
Sea
Level

(mb)
Max Min
22 17:00 62.3 21.9 21 NW 8 G 12 30.27 1025.1 0.00 431 1.2 0.161
22 16:00 62.1 23.9 23 N 6 G 12 30.27 1025.2 0.00 612 2.3 0.142
22 15:00 62.0 23.8 23 W 6 G 13 30.28 1025.3 0.00 765 3.6 0.121
22 14:00 60.7 22.7 60.8 45.5 23 NW 10 G 22 30.30 1026.0 0.00 872 4.7 0.098
22 13:00 58.7 22.0 24 W 5 G 17 30.31 1026.4 0.00 925 5.4 0.075
22 12:00 57.2 21.7 25 NNW 7 G 13 30.32 1026.7 0.00 921 5.2 0.053
22 11:00 55.7 23.9 29 NNW 10 G 16 30.33 1027.0 0.00 856 4.2 0.033
22 10:00 54.5 25.2 32 WNW 10 G 16 30.33 1027.1 0.00 737 2.9 0.017
22 09:00 52.2 25.4 35 NW 7 G 15 30.34 1027.4 0.00 578 1.7 0.006
22 08:00 45.5 26.9 45.5 27.0 48 NNW 7 G 12 30.33 1027.3 0.00 383 0.7 0.001
22 07:00 31.0 27.3 86 NNW 1 G 3 30.33 1027.1 0.00 190 0.0 0.000
22 06:00 27.0 24.2 89 Calm 30.31 1026.5 0.00 7 0.0 0.000
22 05:00 27.7 24.6 88 NNW 1 G 2 30.30 1026.1 0.00 0 0.0 0.000
22 04:00 28.3 24.9 87 Calm 30.30 1026.1 0.00 0 0.0 0.000
22 03:00 29.3 25.6 86 NNW 0 G 1 30.30 1026.2 0.00 0 0.0 0.000
22 02:00 29.9 25.9 49.1 29.9 85 Calm 30.30 1026.1 0.00 0 0.0 0.000
22 01:00 31.0 26.2 82 NNW 1 G 2 30.30 1026.0 0.00 0 0.0 0.000
22 00:00 32.7 27.8 82 Calm 30.28 1025.6 0.00 0 0.0 0.190
21 23:00 34.8 28.3 77 Calm 30.27 1025.1 0.00 0 0.0 0.189
21 22:00 38.4 28.8 68 NNW 0 G 1 30.26 1024.8 0.00 0 0.0 0.188
21 21:00 41.8 27.7 57 NNW 0 G 2 30.23 1023.9 0.00 0 0.0 0.187
21 20:00 49.1 27.6 60.4 49.1 43 NNW 2 G 4 30.21 1023.0 0.00 0 0.0 0.185
21 19:00 56.3 24.5 29 NNW 3 G 13 30.18 1021.9 0.00 42 0.0 0.179
21 18:00 58.9 23.1 25 NW 7 G 15 30.16 1021.5 0.00 229 0.0 0.168
21 17:00 58.7 23.9 26 NW 8 G 15 30.16 1021.4 0.00 74 0.8 0.154
21 16:00 59.5 28.0 30 N 5 G 13 30.17 1021.6 0.00 640 1.5 0.136
21 15:00 58.3 30.8 35 NNW 6 G 14 30.18 1022.1 0.00 817 3.4 0.115
21 14:00 56.6 32.6 57.3 42.6 40 WNW 6 G 17 30.21 1023.1 0.00 884 4.3 0.094
21 13:00 55.3 26.7 33 WNW 6 G 19 30.23 1023.9 0.00 914 4.9 0.073
21 12:00 53.5 30.4 41 NW 15 G 22 30.26 1024.8 0.00 912 4.8 0.053
21 11:00 51.1 28.2 41 NNW 9 G 16 30.27 1025.2 0.00 853 4.0 0.036
21 10:00 49.1 29.2 46 NW 10 G 15 30.28 1025.6 0.00 728 2.8 0.022
21 09:00 46.5 30.3 53 WNW 9 G 17 30.29 1025.8 0.00 564 1.6 0.012
21 08:00 42.6 30.1 42.6 31.7 61 WNW 7 G 13 30.30 1026.1 0.00 371 0.7 0.007
21 07:00 37.7 28.8 70 W 6 G 12 30.29 1025.9 0.00 169 0.0 0.006
21 06:00 35.3 27.5 73 WNW 5 G 10 30.27 1025.3 0.00 7 0.0 0.005
21 05:00 35.9 27.8 72 WNW 5 G 10 30.26 1024.9 0.00 0 0.0 0.004
21 04:00 36.2 27.7 71 WNW 3 G 8 30.26 1024.7 0.00 0 0.0 0.003
21 03:00 35.0 27.9 75 WNW 4 G 10 30.24 1024.2 0.00 0 0.0 0.002
21 02:00 32.1 26.9 46.2 32.1 81 NW 2 G 6 30.24 1024.2 0.00 0 0.0 0.001
21 01:00 37.7 27.4 66 NW 2 G 7 30.24 1024.1 0.00 0 0.0 0.000
21 00:00 40.2 27.8 61 NW 6 G 11 30.24 1024.1 0.01 0 0.0 0.157
20 23:00 41.7 27.6 57 NW 7 G 21 30.23 1023.8 0.01 0 0.0 0.154
20 22:00 43.5 27.5 53 NW 10 G 19 30.22 1023.4 0.01 0 0.0 0.151
20 21:00 44.8 27.8 51 NW 8 G 21 30.20 1022.9 0.01 0 0.0 0.148
20 20:00 46.1 28.5 54.3 46.1 50 NNW 8 G 18 30.18 1021.9 0.01 0 0.0 0.145
20 19:00 48.3 30.5 50 NW 8 G 17 30.14 1020.5 0.01 40 0.0 0.140
20 18:00 51.1 29.9 44 NNW 10 G 24 30.10 1019.3 0.01 120 0.0 0.133
20 17:00 52.5 30.7 43 N 9 G 15 30.06 1017.9 0.01 167 0.6 0.123
20 16:00 52.5 31.8 45 NW 12 G 24 30.04 1017.2 0.01 186 1.3 0.108
20 15:00 51.4 30.2 44 NNW 18 G 25 30.02 1016.8 0.01 290 2.0 0.092
20 14:00 50.2 30.7 50.8 38.2 47 NNW 12 G 25 30.02 1016.6 0.01 0.01 408 2.6 0.079
20 13:00 50.5 33.5 52 WNW 9 G 23 30.01 1016.2 0.01 1322 3.9 0.063
20 12:00 47.7 30.5 51 NW 10 G 24 30.00 1015.9 0.01 466 3.5 0.048
20 11:00 46.8 31.5 55 NNW 12 G 21 29.99 1015.6 0.01 0.01 921 2.3 0.032
20 10:00 43.8 30.4 59 WNW 15 G 24 29.98 1015.4 0.01 789 2.9 0.019
20 09:00 40.8 28.8 62 NW 12 G 27 29.97 1015.0 0.01 0.01 661 1.8 0.011
20 08:00 38.7 28.7 39.0 32.8 67 WNW 10 G 20 29.95 1014.4 0.00 241 0.5 0.006
20 07:00 35.1 28.6 77 WNW 7 G 14 29.94 1013.9 0.00 160 0.0 0.005
20 06:00 33.2 28.0 81 W 4 G 8 29.92 1013.2 0.00 7 0.0 0.005
20 05:00 33.8 28.9 82 NW 3 G 10 29.89 1012.1 0.00 0 0.0 0.004
20 04:00 35.1 29.2 79 WNW 6 G 12 29.87 1011.6 0.00 0 0.0 0.003
20 03:00 36.1 29.9 78 WNW 8 G 11 29.86 1011.2 0.00 0 0.0 0.002
20 02:00 37.3 31.4 41.5 37.3 79 W 4 G 14 29.85 1010.8 0.00 0 0.0 0.001
20 01:00 38.6 32.3 78 WNW 8 G 16 29.84 1010.5 0.00 0 0.0 0.000
20 00:00 39.1 33.8 81 NW 7 G 15 29.82 1010.0 0.48 0 0.0 0.023
19 23:00 39.5 34.8 83 WNW 6 G 10 29.81 1009.4 0.48 0 0.0 0.022
19 22:00 40.1 35.4 83 NW 7 G 15 29.79 1008.8 0.48 0 0.0 0.021
19 21:00 41.2 37.0 85 WNW 4 G 9 29.77 1008.3 0.48 0 0.0 0.020
19 20:00 41.5 38.5 43.8 39.8 89 NNW 3 G 9 29.75 1007.3 0.06 0.48 0 0.0 0.020
19 19:00 42.3 39.0 88 W 3 G 8 29.72 1006.4 0.48 18 0.0 0.019
19 18:00 42.9 39.3 87 W 3 G 9 29.70 1005.8 0.48 105 0.0 0.015

Data generated by WxSolution Version 1.9.1.3, Build 2018.04.19.